Terminal Aerodrome Forecast
Issued by NWS

Home | Current Version | Previous Version | Text Only | Print | Product List | Glossary On
Versions: 1 2 3 4 5 6 7 8 9 10 11 12 13 14 15 16 17 18 19 20 21 22 23 24 25 26 27 28 29 30 31 32 33 34 35 36 37 38 39 40 41 42 43
000
FTUS43 KGLD 240637 AAA
TAFMCK
TAF AMD
KMCK 240637Z 2407/2506 34018G26KT P6SM VCSH OVC025
     FM241300 34019G28KT 2SM -SN OVC015
     FM241900 34020G31KT P6SM OVC030
     FM242200 34018G28KT P6SM BKN035
     FM250000 34010KT P6SM BKN050
     FM250300 32006KT P6SM BKN200=

USA.gov is the U.S. government's official web portal to all federal, state and local government web resources and services.